Welcome to Northern Hawkes Bay. New Zealand.
PWS Header
      nz Flag



Hit Counter


W3C Valid W3C Valid logo


    Wairoa

Select any of the Stations below to visit their websites.










Historic Data from Weather Underground
Select the location of interest below. Wairoa is the default. Please have patience, this Data is slow to load in.
Northern Hawkes Bay Historical Data
Daily Summary for February 13, 2017 Units:  English    Metric   Both
« Previous Day
Next Day »
Daily Weekly Monthly Yearly Custom
  High: Low: Average:
Temperature: 89.6 °F 71.1 °F 79.7 °F
Dew Point: 66.4 °F 55 °F 63.1 °F
Humidity: 72% 42% 58%
Wind Speed: 23.5mph 0.7mph 9.2mph
Wind Gust: 36.5mph - -
Wind- - NW
Pressure: 29.6 in 29.4 in -
Precipitation: 0 in    
Historical Graphs
 
 
Tabular Data for February 13, 2017
Time Temperature Dew Point Pressure Wind Wind Speed Wind Gust Humidity Rainfall Rate (Hourly) solar
00:02 71.1 °F 61.2 °F 29.4 in North 3.1 mph 6 mph 71% 0 in 0 W/m2
00:07 71.2 °F 61.3 °F 29.4 in North 1.6 mph 5.4 mph 71% 0 in 0 W/m2
00:26 72.1 °F 61.9 °F 29.4 in North 3.1 mph 8.3 mph 70% 0 in 0 W/m2
00:31 72.1 °F 61.9 °F 29.4 in North 3.1 mph 8.3 mph 70% 0 in 0 W/m2
01:02 73.2 °F 61.5 °F 29.4 in North 2.2 mph 14.5 mph 67% 0 in 0 W/m2
01:07 73 °F 61.9 °F 29.4 in North 3.1 mph 12.1 mph 68% 0 in 0 W/m2
01:12 72.9 °F 61.7 °F 29.4 in North 6 mph 9.2 mph 68% 0 in 0 W/m2
01:17 72.7 °F 61.5 °F 29.4 in NNW 5.4 mph 9.2 mph 68% 0 in 0 W/m2
01:22 72.3 °F 61.5 °F 29.4 in North 3.8 mph 9.8 mph 69% 0 in 0 W/m2
01:27 72.3 °F 62.1 °F 29.4 in North 1.6 mph 9.8 mph 70% 0 in 0 W/m2
01:32 72.5 °F 62.2 °F 29.4 in NNW 6 mph 9.2 mph 70% 0 in 0 W/m2
01:37 72.5 °F 62.2 °F 29.4 in NW 0.7 mph 9.2 mph 70% 0 in 0 W/m2
01:42 72.1 °F 62.2 °F 29.4 in NNW 7.6 mph 9.8 mph 71% 0 in 0 W/m2
01:47 72.3 °F 62.4 °F 29.4 in NNW 8.3 mph 11.4 mph 71% 0 in 0 W/m2
01:52 72.7 °F 62.8 °F 29.4 in NNW 8.3 mph 14.5 mph 71% 0 in 0 W/m2
01:57 73.4 °F 62.6 °F 29.4 in NNW 5.4 mph 14.5 mph 69% 0 in 0 W/m2
02:02 73.8 °F 63 °F 29.4 in North 6 mph 13 mph 69% 0 in 0 W/m2
02:07 74.3 °F 63.1 °F 29.4 in North 6.9 mph 13 mph 68% 0 in 0 W/m2
02:12 74.7 °F 63 °F 29.4 in North 6 mph 13.6 mph 67% 0 in 0 W/m2
02:17 75.2 °F 63.1 °F 29.4 in NNW 11.4 mph 16.8 mph 66% 0 in 0 W/m2
02:23 75.4 °F 63.3 °F 29.4 in NW 8.3 mph 17.4 mph 66% 0 in 0 W/m2
02:28 75.4 °F 63.3 °F 29.4 in NNW 9.2 mph 18.3 mph 66% 0 in 0 W/m2
02:33 75.4 °F 63.3 °F 29.4 in North 6 mph 18.3 mph 66% 0 in 0 W/m2
02:38 75.2 °F 63.1 °F 29.4 in NNW 5.4 mph 15.2 mph 66% 0 in 0 W/m2
02:43 75 °F 63.9 °F 29.4 in NNW 5.4 mph 11.4 mph 68% 0 in 0 W/m2
02:49 75 °F 63.9 °F 29.4 in North 8.3 mph 11.4 mph 68% 0 in 0 W/m2
02:54 75 °F 63.9 °F 29.4 in North 7.6 mph 12.1 mph 68% 0 in 0 W/m2
02:59 75 °F 63.9 °F 29.4 in NNW 6.9 mph 13 mph 68% 0 in 0 W/m2
03:04 75 °F 63.9 °F 29.4 in NW 7.6 mph 14.5 mph 68% 0 in 0 W/m2
03:09 75 °F 63.9 °F 29.4 in NNW 8.3 mph 14.5 mph 68% 0 in 0 W/m2
03:15 75.2 °F 63.5 °F 29.4 in NNW 12.1 mph 18.3 mph 67% 0 in 0 W/m2
03:20 75.2 °F 63.5 °F 29.4 in NW 6.9 mph 19 mph 67% 0 in 0 W/m2
03:25 75 °F 63.9 °F 29.4 in NW 10.7 mph 19 mph 68% 0 in 0 W/m2
03:30 74.7 °F 63.3 °F 29.4 in NNW 9.8 mph 16.8 mph 68% 0 in 0 W/m2
03:36 74.7 °F 63.9 °F 29.4 in NNW 11.4 mph 20.6 mph 69% 0 in 0 W/m2
03:41 74.8 °F 64 °F 29.4 in NW 12.1 mph 20.6 mph 69% 0 in 0 W/m2
03:46 75 °F 64.2 °F 29.4 in NNW 9.2 mph 18.3 mph 69% 0 in 0 W/m2
03:51 75.2 °F 63.5 °F 29.4 in NNW 8.3 mph 17.4 mph 67% 0 in 0 W/m2
03:57 75.2 °F 63.5 °F 29.4 in NW 9.8 mph 17.4 mph 67% 0 in 0 W/m2
04:02 74.8 °F 64 °F 29.4 in NW 8.3 mph 14.5 mph 69% 0 in 0 W/m2
04:07 74.5 °F 63.7 °F 29.4 in NNW 8.3 mph 14.5 mph 69% 0 in 0 W/m2
04:12 74.5 °F 64 °F 29.4 in North 5.4 mph 11.4 mph 70% 0 in 0 W/m2
04:17 74.3 °F 63.9 °F 29.4 in NNW 7.6 mph 12.1 mph 70% 0 in 0 W/m2
04:22 74.3 °F 63.9 °F 29.4 in NNW 6 mph 12.1 mph 70% 0 in 0 W/m2
04:27 74.1 °F 64.2 °F 29.4 in NNW 6.9 mph 12.1 mph 71% 0 in 0 W/m2
04:32 74.1 °F 64.2 °F 29.4 in NNW 9.8 mph 15.2 mph 71% 0 in 0 W/m2
04:37 74.1 °F 64.2 °F 29.4 in NNW 5.4 mph 15.2 mph 71% 0 in 0 W/m2
04:42 74.3 °F 64.2 °F 29.4 in NNW 6 mph 15.2 mph 71% 0 in 0 W/m2
04:47 74.3 °F 64.2 °F 29.4 in NW 6.9 mph 11.4 mph 71% 0 in 0 W/m2
04:52 74.1 °F 64.2 °F 29.4 in NNW 4.5 mph 9.8 mph 71% 0 in 0 W/m2
04:57 74.1 °F 64.2 °F 29.4 in NNW 3.1 mph 9.2 mph 71% 0 in 0 W/m2
05:02 73.9 °F 64 °F 29.4 in NNW 4.5 mph 9.2 mph 71% 0 in 0 W/m2
05:07 73.9 °F 64.4 °F 29.4 in North 3.1 mph 6.9 mph 72% 0 in 0 W/m2
05:12 73.8 °F 64.2 °F 29.4 in North 2.2 mph 6.9 mph 72% 0 in 0 W/m2
05:17 73.8 °F 64.2 °F 29.4 in North 2.2 mph 5.4 mph 72% 0 in 0 W/m2
05:22 73.8 °F 64.2 °F 29.4 in NNE 4.5 mph 6.9 mph 72% 0 in 0 W/m2
05:27 73.9 °F 64.4 °F 29.4 in North 3.1 mph 6.9 mph 72% 0 in 0 W/m2
05:32 74.1 °F 64.2 °F 29.4 in North 2.2 mph 8.3 mph 71% 0 in 0 W/m2
05:37 74.1 °F 64.2 °F 29.4 in North 4.5 mph 8.3 mph 71% 0 in 0 W/m2
05:42 74.1 °F 64.2 °F 29.4 in NNW 3.8 mph 7.6 mph 71% 0 in 0 W/m2
05:47 74.1 °F 64.2 °F 29.4 in NNW 3.8 mph 7.6 mph 71% 0 in 0 W/m2
05:52 74.3 °F 64.2 °F 29.4 in NNW 6 mph 7.6 mph 71% 0 in 0 W/m2
05:57 74.5 °F 64 °F 29.4 in North 3.8 mph 8.3 mph 70% 0 in 0 W/m2
06:03 75 °F 64.6 °F 29.4 in North 7.6 mph 12.1 mph 70% 0 in 0 W/m2
06:08 75.4 °F 64 °F 29.4 in North 6 mph 12.1 mph 68% 0 in 0 W/m2
06:13 75.4 °F 64 °F 29.4 in NNW 3.1 mph 12.1 mph 68% 0 in 0 W/m2
06:18 75.4 °F 64 °F 29.4 in NNW 4.5 mph 12.1 mph 68% 0 in 0 W/m2
06:23 75.4 °F 64 °F 29.4 in North 3.8 mph 9.2 mph 68% 0 in 0 W/m2
06:28 75.4 °F 64.6 °F 29.4 in NNW 8.3 mph 12.1 mph 69% 0 in 0 W/m2
06:33 75.7 °F 64.6 °F 29.4 in NNW 10.7 mph 13 mph 68% 0 in 1 W/m2
06:38 75.9 °F 64.6 °F 29.4 in NNW 6.9 mph 13 mph 68% 0 in 3 W/m2
06:43 75.9 °F 64.6 °F 29.4 in NNW 7.6 mph 15.2 mph 68% 0 in 5 W/m2
06:48 75.9 °F 64.6 °F 29.4 in NNW 5.4 mph 15.2 mph 68% 0 in 8 W/m2
06:53 76.1 °F 64.8 °F 29.4 in North 6 mph 13.6 mph 68% 0 in 13 W/m2
06:58 76.1 °F 64.8 °F 29.4 in North 4.5 mph 11.4 mph 68% 0 in 18 W/m2
07:03 76.3 °F 64.9 °F 29.4 in North 8.3 mph 12.1 mph 68% 0 in 26 W/m2
07:09 76.6 °F 64.9 °F 29.4 in NNW 6.9 mph 13.6 mph 67% 0 in 47 W/m2
07:14 77 °F 64.8 °F 29.4 in North 8.3 mph 15.9 mph 66% 0 in 44 W/m2
07:19 77 °F 64.8 °F 29.4 in North 9.8 mph 19 mph 66% 0 in 65 W/m2
07:24 77.5 °F 65.3 °F 29.4 in NNW 6.9 mph 19 mph 66% 0 in 85 W/m2
07:29 77.5 °F 65.3 °F 29.4 in NNW 9.8 mph 19.7 mph 66% 0 in 82 W/m2
07:34 77.7 °F 65.5 °F 29.4 in North 10.7 mph 19.7 mph 66% 0 in 98 W/m2
07:39 77.9 °F 65.7 °F 29.4 in NNW 9.2 mph 19.7 mph 66% 0 in 148 W/m2
07:57 79 °F 65.8 °F 29.4 in NNW 11.4 mph 18.3 mph 64% 0 in 197 W/m2
08:02 79.3 °F 65.7 °F 29.4 in NNW 9.8 mph 18.3 mph 63% 0 in 119 W/m2
08:07 79 °F 65.8 °F 29.4 in NNW 8.3 mph 18.3 mph 64% 0 in 141 W/m2
08:12 79 °F 65.8 °F 29.4 in NNW 6.9 mph 19.7 mph 64% 0 in 172 W/m2
08:17 79.5 °F 65.8 °F 29.4 in North 9.2 mph 19.7 mph 63% 0 in 217 W/m2
08:22 80.2 °F 66 °F 29.4 in NNW 8.3 mph 15.2 mph 62% 0 in 231 W/m2
08:27 80.4 °F 66.4 °F 29.4 in NNW 8.3 mph 16.8 mph 62% 0 in 242 W/m2
08:33 80.8 °F 66 °F 29.4 in North 9.2 mph 17.4 mph 61% 0 in 255 W/m2
08:38 80.8 °F 66 °F 29.4 in North 9.8 mph 17.4 mph 61% 0 in 271 W/m2
08:43 81.3 °F 66.2 °F 29.4 in North 9.2 mph 20.6 mph 60% 0 in 291 W/m2
08:48 81.5 °F 65.8 °F 29.4 in North 15.2 mph 20.6 mph 59% 0 in 351 W/m2
08:53 81.5 °F 65.8 °F 29.4 in North 17.4 mph 20.6 mph 59% 0 in 373 W/m2
08:59 81.5 °F 65.8 °F 29.4 in NNW 6.9 mph 20.6 mph 59% 0 in 384 W/m2
09:04 81.9 °F 66.2 °F 29.4 in North 9.8 mph 19 mph 59% 0 in 162 W/m2
09:09 81.9 °F 66.2 °F 29.4 in North 9.2 mph 19 mph 59% 0 in 362 W/m2
09:14 82 °F 65.8 °F 29.4 in North 11.4 mph 21.3 mph 58% 0 in 372 W/m2
09:19 82 °F 65.5 °F 29.4 in NNW 13 mph 28.9 mph 57% 0 in 390 W/m2
09:25 81.7 °F 65.5 °F 29.4 in NNW 15.9 mph 29.8 mph 58% 0 in 436 W/m2
09:30 81.9 °F 66.2 °F 29.4 in NNW 21.3 mph 34.9 mph 59% 0 in 436 W/m2
09:35 82 °F 65.5 °F 29.4 in NNW 20.6 mph 34.9 mph 57% 0 in 428 W/m2
09:40 82.2 °F 65.5 °F 29.4 in NNW 20.6 mph 34.2 mph 57% 0 in 486 W/m2
09:45 82.6 °F 65.3 °F 29.4 in NNW 23.5 mph 36.5 mph 56% 0 in 510 W/m2
09:50 82.6 °F 65.3 °F 29.4 in NNW 19 mph 36.5 mph 56% 0 in 506 W/m2
09:55 82.8 °F 65.5 °F 29.4 in NNW 14.5 mph 36.5 mph 56% 0 in 524 W/m2
10:00 82.9 °F 65.1 °F 29.4 in NW 13.6 mph 29.8 mph 55% 0 in 548 W/m2
10:06 82.6 °F 65.3 °F 29.4 in NNW 15.9 mph 29.8 mph 56% 0 in 577 W/m2
10:11 82 °F 64.8 °F 29.4 in NNW 7.6 mph 23.5 mph 56% 0 in 301 W/m2
10:16 81.3 °F 64.8 °F 29.4 in NNW 15.2 mph 21.3 mph 57% 0 in 191 W/m2
10:21 80.8 °F 64.2 °F 29.4 in North 11.4 mph 22.8 mph 57% 0 in 253 W/m2
10:26 81.3 °F 64.8 °F 29.4 in North 10.7 mph 22.8 mph 57% 0 in 288 W/m2
10:31 81.5 °F 63.3 °F 29.4 in NNW 15.9 mph 19.7 mph 54% 0 in 205 W/m2
10:36 80.6 °F 62.4 °F 29.4 in NNW 11.4 mph 23.5 mph 54% 0 in 156 W/m2
10:41 80.1 °F 63.5 °F 29.4 in NNE 12.1 mph 27.3 mph 57% 0 in 168 W/m2
10:46 80.1 °F 63.5 °F 29.4 in North 11.4 mph 27.3 mph 57% 0 in 415 W/m2
10:51 80.8 °F 63.1 °F 29.4 in NNW 9.8 mph 17.4 mph 55% 0 in 283 W/m2
10:56 82.2 °F 64 °F 29.4 in North 7.6 mph 16.8 mph 54% 0 in 325 W/m2
11:01 82 °F 63.3 °F 29.4 in North 7.6 mph 16.8 mph 53% 0 in 804 W/m2
11:06 82.6 °F 63.1 °F 29.4 in NNW 6.9 mph 14.5 mph 52% 0 in 233 W/m2
11:11 82.8 °F 63.3 °F 29.4 in NW 11.4 mph 16.8 mph 52% 0 in 825 W/m2
11:16 82.9 °F 63 °F 29.4 in NNW 8.3 mph 16.8 mph 51% 0 in 249 W/m2
11:21 82.6 °F 64.2 °F 29.4 in NNW 6 mph 18.3 mph 54% 0 in 307 W/m2
11:26 83.3 °F 64.4 °F 29.4 in North 7.6 mph 18.3 mph 53% 0 in 778 W/m2
11:31 83.3 °F 63.3 °F 29.4 in North 13 mph 19 mph 51% 0 in 812 W/m2
11:36 82.9 °F 62.4 °F 29.4 in NW 12.1 mph 19.7 mph 50% 0 in 830 W/m2
11:37 83.1 °F 63.1 °F 29.4 in NW 11.4 mph 19.7 mph 51% 0 in 841 W/m2
11:42 83.5 °F 62.4 °F 29.5 in NW 13 mph 22.1 mph 49% 0 in 943 W/m2
11:47 84 °F 63 °F 29.5 in NNW 10.7 mph 22.1 mph 49% 0 in 366 W/m2
11:52 84.2 °F 62.4 °F 29.5 in NW 11.4 mph 22.1 mph 48% 0 in 356 W/m2
11:57 83.5 °F 62.4 °F 29.5 in WNW 9.8 mph 20.6 mph 49% 0 in 1025 W/m2
12:02 84 °F 63 °F 29.5 in WNW 14.5 mph 22.8 mph 49% 0 in 929 W/m2
12:07 84 °F 63 °F 29.5 in WNW 12.1 mph 22.8 mph 49% 0 in 918 W/m2
12:12 83.3 °F 62.2 °F 29.5 in WNW 10.7 mph 22.8 mph 49% 0 in 932 W/m2
12:17 82.9 °F 62.4 °F 29.4 in NW 9.8 mph 20.6 mph 50% 0 in 915 W/m2
12:22 83.5 °F 63 °F 29.4 in NW 6 mph 20.6 mph 50% 0 in 964 W/m2
12:27 83.5 °F 62.4 °F 29.4 in NW 9.8 mph 25.1 mph 49% 0 in 447 W/m2
12:32 83.5 °F 61.9 °F 29.4 in NNW 12.1 mph 25.1 mph 48% 0 in 965 W/m2
12:48 85.3 °F 61.5 °F 29.4 in NW 12.1 mph 24.4 mph 45% 0 in 977 W/m2
12:53 85.6 °F 62.4 °F 29.4 in NW 8.3 mph 24.4 mph 46% 0 in 972 W/m2
12:58 86.2 °F 61.2 °F 29.4 in NNW 12.1 mph 21.3 mph 43% 0 in 973 W/m2
13:03 85.8 °F 61.3 °F 29.4 in NW 10.7 mph 29.8 mph 44% 0 in 972 W/m2
13:08 85.6 °F 61.3 °F 29.4 in WNW 9.8 mph 29.8 mph 44% 0 in 975 W/m2
13:13 86.4 °F 61.3 °F 29.4 in NW 8.3 mph 22.1 mph 43% 0 in 971 W/m2
13:18 87.4 °F 62.2 °F 29.4 in NW 13 mph 19 mph 43% 0 in 987 W/m2
13:23 87.3 °F 61.3 °F 29.4 in NW 18.3 mph 28.9 mph 42% 0 in 972 W/m2
13:28 86.2 °F 61.9 °F 29.4 in NW 11.4 mph 28.9 mph 44% 0 in 965 W/m2
13:33 86.4 °F 61.9 °F 29.4 in NW 10.7 mph 26.6 mph 44% 0 in 960 W/m2
13:38 86.7 °F 62.2 °F 29.4 in WNW 16.8 mph 24.4 mph 44% 0 in 961 W/m2
13:43 86.2 °F 61.9 °F 29.4 in WNW 11.4 mph 26.6 mph 44% 0 in 945 W/m2
13:48 86.7 °F 63 °F 29.4 in NW 13.6 mph 26.6 mph 45% 0 in 950 W/m2
13:53 86.5 °F 62.8 °F 29.4 in NW 10.7 mph 22.8 mph 45% 0 in 935 W/m2
13:58 86.7 °F 63 °F 29.4 in NW 14.5 mph 22.8 mph 45% 0 in 930 W/m2
14:03 86.7 °F 63 °F 29.4 in WNW 13 mph 24.4 mph 45% 0 in 920 W/m2
14:08 86.5 °F 62.8 °F 29.4 in WNW 12.1 mph 28.2 mph 45% 0 in 911 W/m2
14:13 86.5 °F 62.8 °F 29.4 in NW 15.9 mph 28.2 mph 45% 0 in 905 W/m2
14:18 86.2 °F 63 °F 29.4 in WNW 13 mph 28.2 mph 46% 0 in 887 W/m2
14:23 86.4 °F 63.1 °F 29.4 in WNW 13.6 mph 28.2 mph 46% 0 in 876 W/m2
14:28 86.7 °F 63.5 °F 29.4 in WNW 14.5 mph 23.5 mph 46% 0 in 866 W/m2
14:33 86.2 °F 63 °F 29.4 in NW 10.7 mph 27.3 mph 46% 0 in 855 W/m2
14:38 86.4 °F 63.1 °F 29.4 in NW 10.7 mph 28.9 mph 46% 0 in 839 W/m2
14:43 86.7 °F 64 °F 29.4 in NW 11.4 mph 28.9 mph 47% 0 in 824 W/m2
14:48 87.3 °F 64 °F 29.4 in NW 13 mph 22.8 mph 46% 0 in 798 W/m2
14:53 87.6 °F 64.2 °F 29.4 in NW 6.9 mph 21.3 mph 46% 0 in 730 W/m2
14:58 88 °F 64 °F 29.4 in NW 9.2 mph 22.1 mph 45% 0 in 745 W/m2
15:03 88.2 °F 63.7 °F 29.4 in NW 13 mph 22.8 mph 44% 0 in 710 W/m2
15:08 87.8 °F 63.1 °F 29.4 in WNW 19.7 mph 29.8 mph 44% 0 in 673 W/m2
15:13 87.6 °F 63.7 °F 29.4 in WNW 15.2 mph 29.8 mph 45% 0 in 675 W/m2
15:18 87.8 °F 63.9 °F 29.4 in WNW 14.5 mph 29.8 mph 45% 0 in 677 W/m2
15:23 88.9 °F 64.9 °F 29.4 in NW 10.7 mph 25.1 mph 45% 0 in 743 W/m2
15:28 88.5 °F 63.9 °F 29.5 in NW 20.6 mph 26.6 mph 44% 0 in 654 W/m2
15:33 87.6 °F 64.2 °F 29.4 in WNW 12.1 mph 28.9 mph 46% 0 in 637 W/m2
15:38 88.3 °F 63.7 °F 29.4 in NW 10.7 mph 28.9 mph 44% 0 in 675 W/m2
15:43 89.1 °F 64.4 °F 29.4 in NW 10.7 mph 20.6 mph 44% 0 in 691 W/m2
15:48 88.5 °F 63.9 °F 29.4 in NW 10.7 mph 27.3 mph 44% 0 in 533 W/m2
15:53 89.1 °F 64.4 °F 29.4 in NW 15.9 mph 27.3 mph 44% 0 in 523 W/m2
15:54 88.9 °F 64.2 °F 29.4 in NNW 14.5 mph 27.3 mph 44% 0 in 562 W/m2
15:59 88.9 °F 64.2 °F 29.4 in NW 17.4 mph 26.6 mph 44% 0 in 553 W/m2
16:04 88.7 °F 64 °F 29.4 in NW 8.3 mph 28.2 mph 44% 0 in 545 W/m2
16:09 89.6 °F 64.2 °F 29.4 in WNW 10.7 mph 28.2 mph 43% 0 in 579 W/m2
16:14 89.1 °F 63.7 °F 29.4 in WNW 11.4 mph 28.2 mph 43% 0 in 490 W/m2
16:19 88.9 °F 63.7 °F 29.4 in NW 15.2 mph 28.2 mph 43% 0 in 460 W/m2
16:24 89.6 °F 63.5 °F 29.4 in NW 9.8 mph 25.9 mph 42% 0 in 367 W/m2
16:29 89.1 °F 64.4 °F 29.4 in NW 17.4 mph 28.2 mph 44% 0 in 421 W/m2
16:34 88.3 °F 63.7 °F 29.4 in NW 13.6 mph 28.2 mph 44% 0 in 446 W/m2
16:39 88.5 °F 63.9 °F 29.5 in NW 12.1 mph 28.2 mph 44% 0 in 407 W/m2
16:44 88.5 °F 64.6 °F 29.4 in NW 9.8 mph 25.9 mph 45% 0 in 487 W/m2
16:50 88.7 °F 64 °F 29.4 in NW 17.4 mph 28.2 mph 44% 0 in 512 W/m2
16:55 87.8 °F 63.9 °F 29.4 in NW 12.1 mph 28.2 mph 45% 0 in 485 W/m2
17:00 87.8 °F 63.9 °F 29.4 in NW 14.5 mph 28.2 mph 45% 0 in 513 W/m2
17:05 87.8 °F 63.9 °F 29.5 in NW 13.6 mph 27.3 mph 45% 0 in 467 W/m2
17:11 87.4 °F 64.2 °F 29.5 in NW 12.1 mph 27.3 mph 46% 0 in 348 W/m2
17:16 86.7 °F 64 °F 29.5 in NNW 13 mph 28.9 mph 47% 0 in 486 W/m2
17:21 87.1 °F 64.6 °F 29.5 in NW 9.2 mph 28.9 mph 47% 0 in 401 W/m2
17:26 86.4 °F 63.9 °F 29.5 in NW 6.9 mph 28.2 mph 47% 0 in 371 W/m2
17:31 86.4 °F 64.4 °F 29.5 in NW 10.7 mph 28.2 mph 48% 0 in 367 W/m2
17:36 85.8 °F 64.6 °F 29.5 in WNW 10.7 mph 25.1 mph 49% 0 in 345 W/m2
17:41 85.8 °F 64.6 °F 29.5 in NW 9.2 mph 25.1 mph 49% 0 in 335 W/m2
17:46 85.5 °F 64.2 °F 29.5 in NW 9.8 mph 27.3 mph 49% 0 in 309 W/m2
17:51 85.6 °F 64.2 °F 29.5 in NW 13 mph 27.3 mph 49% 0 in 319 W/m2
17:56 85.6 °F 64.2 °F 29.5 in WNW 8.3 mph 25.9 mph 49% 0 in 316 W/m2
18:01 85.8 °F 64.6 °F 29.5 in NW 12.1 mph 25.9 mph 49% 0 in 300 W/m2
18:06 85.1 °F 63.9 °F 29.5 in NW 11.4 mph 22.8 mph 49% 0 in 283 W/m2
18:11 84.9 °F 64.2 °F 29.5 in NW 9.2 mph 29.8 mph 50% 0 in 269 W/m2
18:16 84.9 °F 63.7 °F 29.5 in NW 11.4 mph 29.8 mph 49% 0 in 244 W/m2
18:21 84.4 °F 63.9 °F 29.5 in NW 10.7 mph 25.9 mph 50% 0 in 233 W/m2
18:26 84.7 °F 64 °F 29.5 in WNW 6.9 mph 25.9 mph 50% 0 in 220 W/m2
18:31 83.7 °F 64.8 °F 29.5 in WNW 10.7 mph 20.6 mph 53% 0 in 200 W/m2
18:36 83.1 °F 65.3 °F 29.5 in WNW 15.2 mph 21.3 mph 55% 0 in 172 W/m2
18:41 81.9 °F 64.8 °F 29.5 in NW 13.6 mph 22.8 mph 56% 0 in 91 W/m2
18:46 81.5 °F 64.8 °F 29.5 in NW 11.4 mph 22.8 mph 57% 0 in 84 W/m2
18:51 81.3 °F 65.1 °F 29.5 in NW 15.9 mph 22.8 mph 58% 0 in 72 W/m2
18:56 81 °F 64.8 °F 29.5 in NW 12.1 mph 22.8 mph 58% 0 in 106 W/m2
19:01 80.8 °F 64.2 °F 29.5 in NW 9.8 mph 22.1 mph 57% 0 in 73 W/m2
19:06 80.2 °F 64.8 °F 29.5 in NW 11.4 mph 22.1 mph 59% 0 in 61 W/m2
19:11 79.9 °F 64.2 °F 29.5 in NW 13.6 mph 22.8 mph 59% 0 in 63 W/m2
19:16 79.3 °F 64.2 °F 29.5 in NW 8.3 mph 22.8 mph 60% 0 in 52 W/m2
19:21 79.3 °F 63.9 °F 29.5 in NW 10.7 mph 19 mph 59% 0 in 50 W/m2
19:26 79 °F 63 °F 29.5 in NNW 10.7 mph 21.3 mph 58% 0 in 68 W/m2
19:31 79.3 °F 62.8 °F 29.5 in NNW 13 mph 27.3 mph 57% 0 in 66 W/m2
19:36 79 °F 62.4 °F 29.5 in NNW 13 mph 30.4 mph 57% 0 in 40 W/m2
19:41 78.6 °F 62.6 °F 29.5 in NNW 10.7 mph 30.4 mph 58% 0 in 32 W/m2
19:46 78.4 °F 63 °F 29.5 in NNW 6 mph 20.6 mph 59% 0 in 26 W/m2
19:51 78.3 °F 62.8 °F 29.5 in NW 6.9 mph 19.7 mph 59% 0 in 21 W/m2
19:56 78.1 °F 61.5 °F 29.6 in WNW 10.7 mph 19.7 mph 57% 0 in 15 W/m2
20:01 78.1 °F 61.5 °F 29.5 in WNW 14.5 mph 22.1 mph 57% 0 in 12 W/m2
20:06 77.9 °F 61 °F 29.5 in NW 9.2 mph 22.1 mph 56% 0 in 8 W/m2
20:11 77.7 °F 61.3 °F 29.6 in NNW 12.1 mph 18.3 mph 57% 0 in 4 W/m2
20:16 77.5 °F 61.2 °F 29.6 in NNW 7.6 mph 19 mph 57% 0 in 2 W/m2
20:21 77.5 °F 61.2 °F 29.6 in NNW 6.9 mph 19 mph 57% 0 in 0 W/m2
20:26 77.4 °F 61 °F 29.6 in NW 6.9 mph 16.8 mph 57% 0 in 0 W/m2
20:31 77.2 °F 61.3 °F 29.6 in WNW 9.8 mph 13.6 mph 58% 0 in 0 W/m2
20:36 77 °F 61.2 °F 29.6 in NW 7.6 mph 14.5 mph 58% 0 in 0 W/m2
20:41 77 °F 61.2 °F 29.6 in NNW 7.6 mph 14.5 mph 58% 0 in 0 W/m2
20:46 77 °F 61.2 °F 29.6 in NNW 6 mph 13 mph 58% 0 in 0 W/m2
20:51 76.8 °F 61.3 °F 29.6 in NNW 6.9 mph 14.5 mph 59% 0 in 0 W/m2
20:56 76.6 °F 61.3 °F 29.6 in NW 4.5 mph 14.5 mph 59% 0 in 0 W/m2
21:01 76.3 °F 61.9 °F 29.6 in NW 5.4 mph 12.1 mph 61% 0 in 0 W/m2
21:06 75.9 °F 62.1 °F 29.6 in NNW 4.5 mph 8.3 mph 62% 0 in 0 W/m2
21:11 75.9 °F 62.1 °F 29.6 in NNW 4.5 mph 8.3 mph 62% 0 in 0 W/m2
21:16 75.7 °F 61.3 °F 29.6 in NNW 3.1 mph 12.1 mph 61% 0 in 0 W/m2
21:21 75.7 °F 61.3 °F 29.6 in North 3.1 mph 12.1 mph 61% 0 in 0 W/m2
21:26 75.6 °F 62.1 °F 29.6 in North 3.8 mph 8.3 mph 63% 0 in 0 W/m2
21:31 75 °F 62.4 °F 29.6 in NNW 3.1 mph 6 mph 65% 0 in 0 W/m2
21:36 74.7 °F 62.1 °F 29.6 in NNW 4.5 mph 6 mph 65% 0 in 0 W/m2
21:41 74.7 °F 62.1 °F 29.6 in NNW 3.8 mph 6.9 mph 65% 0 in 0 W/m2
21:46 75 °F 61.5 °F 29.6 in NNW 8.3 mph 10.7 mph 63% 0 in 0 W/m2
21:51 75.4 °F 61 °F 29.6 in NW 10.7 mph 19 mph 61% 0 in 0 W/m2
21:56 75.4 °F 60.6 °F 29.6 in NW 2.2 mph 19 mph 60% 0 in 0 W/m2
22:01 75.4 °F 60.6 °F 29.6 in NW 4.5 mph 9.8 mph 60% 0 in 0 W/m2
22:06 75.4 °F 60.6 °F 29.6 in NW 3.8 mph 13 mph 60% 0 in 0 W/m2
22:11 75.4 °F 60.1 °F 29.6 in NNW 5.4 mph 13 mph 59% 0 in 0 W/m2
22:16 75.4 °F 59.5 °F 29.6 in NNW 6 mph 14.5 mph 58% 0 in 0 W/m2
22:21 75.7 °F 59.5 °F 29.6 in NW 7.6 mph 17.4 mph 57% 0 in 0 W/m2
22:26 75.4 °F 58.6 °F 29.6 in NW 8.3 mph 17.4 mph 56% 0 in 0 W/m2
22:31 75.4 °F 59.2 °F 29.6 in NW 6 mph 17.4 mph 57% 0 in 0 W/m2
22:36 75.4 °F 58.6 °F 29.6 in WNW 6.9 mph 16.8 mph 56% 0 in 0 W/m2
22:41 75.4 °F 58.1 °F 29.6 in WNW 6 mph 20.6 mph 55% 0 in 0 W/m2
22:46 75.4 °F 58.1 °F 29.6 in WNW 7.6 mph 20.6 mph 55% 0 in 0 W/m2
22:51 75.4 °F 58.1 °F 29.6 in NW 4.5 mph 17.4 mph 55% 0 in 0 W/m2
22:56 75 °F 58.3 °F 29.6 in NNW 6 mph 18.3 mph 56% 0 in 0 W/m2
23:01 74.8 °F 58.1 °F 29.6 in NNW 5.4 mph 18.3 mph 56% 0 in 0 W/m2
23:06 74.7 °F 57.6 °F 29.6 in NW 8.3 mph 13.6 mph 55% 0 in 0 W/m2
23:11 74.7 °F 57.6 °F 29.6 in NW 9.2 mph 14.5 mph 55% 0 in 0 W/m2
23:16 74.7 °F 56.8 °F 29.6 in NW 6 mph 14.5 mph 54% 0 in 0 W/m2
23:22 74.5 °F 56.8 °F 29.6 in NW 3.1 mph 13.6 mph 54% 0 in 0 W/m2
23:27 74.3 °F 56.7 °F 29.6 in NW 5.4 mph 9.2 mph 54% 0 in 0 W/m2
23:32 74.1 °F 55.9 °F 29.6 in NW 6.9 mph 12.1 mph 53% 0 in 0 W/m2
23:37 74.1 °F 55.9 °F 29.6 in NW 4.5 mph 12.1 mph 53% 0 in 0 W/m2
23:42 74.1 °F 55.4 °F 29.6 in NW 4.5 mph 12.1 mph 52% 0 in 0 W/m2
23:48 73.8 °F 55 °F 29.6 in NW 5.4 mph 10.7 mph 52% 0 in 0 W/m2
23:53 73.6 °F 55.4 °F 29.6 in NW 1.6 mph 10.7 mph 53% 0 in 0 W/m2
23:58 73.4 °F 55.2 °F 29.6 in WNW 3.1 mph 10.7 mph 53% 0 in 0 W/m2
Northern Hawkes Bay. New Zealand Historic Data
Compliments of Weather Underground - 2.25 mb